Time;durP1;ratioP1;P1;durP2;ratioP2;P2;SDS_P1;SDS_P2;PMS_P1;PMS_P2;Temp;Humidity;BMP_temperature;BMP_pressure;BME280_temperature;BME280_humidity;BME280_pressure;Samples;Min_cycle;Max_cycle;Signal;HPM_P1;HPM_P2
2021/12/07 00:00:35;;;;;;;25.52;17.90;;;2.60;99.90;;;;;;5113053;28;20035;-48
2021/12/07 00:03:00;;;;;;;27.80;18.35;;;2.50;99.90;;;;;;5113289;28;20040;-48
2021/12/07 00:05:26;;;;;;;27.35;18.02;;;2.50;99.90;;;;;;5113014;28;20035;-50
2021/12/07 00:07:52;;;;;;;29.40;17.65;;;2.50;99.90;;;;;;5113493;28;20043;-50
2021/12/07 00:10:18;;;;;;;28.20;18.52;;;2.50;99.90;;;;;;5113294;28;20040;-47
2021/12/07 00:12:45;;;;;;;28.33;19.10;;;2.50;99.90;;;;;;5113147;28;20039;-51
2021/12/07 00:15:15;;;;;;;28.27;19.52;;;2.50;99.90;;;;;;5112991;28;20036;-52
2021/12/07 00:17:40;;;;;;;28.40;17.77;;;2.50;99.90;;;;;;5112821;28;20107;-49
2021/12/07 00:20:11;;;;;;;28.58;18.83;;;2.50;99.90;;;;;;5113266;28;20476;-49
2021/12/07 00:22:38;;;;;;;27.00;18.27;;;2.50;99.90;;;;;;5112943;28;20074;-47
2021/12/07 00:25:05;;;;;;;27.60;18.15;;;2.50;99.90;;;;;;5112920;28;20041;-47
2021/12/07 00:27:31;;;;;;;28.05;19.30;;;2.40;99.90;;;;;;5112805;28;20035;-48
2021/12/07 00:29:56;;;;;;;26.67;18.58;;;2.40;99.90;;;;;;5112849;28;20404;-49
2021/12/07 00:32:31;;;;;;;26.95;17.58;;;2.40;99.90;;;;;;5112712;28;20473;-50
2021/12/07 00:37:30;;;;;;;22.25;16.27;;;2.40;99.90;;;;;;5112715;28;20054;-46
2021/12/07 00:39:56;;;;;;;24.52;16.48;;;2.30;99.90;;;;;;5112513;28;20566;-49
2021/12/07 00:42:23;;;;;;;23.58;17.55;;;2.20;99.90;;;;;;5112817;28;20047;-47
2021/12/07 00:44:49;;;;;;;24.23;16.23;;;2.30;99.90;;;;;;5112713;28;20106;-49
2021/12/07 00:47:15;;;;;;;22.98;16.25;;;2.10;99.90;;;;;;5112780;28;20110;-49
2021/12/07 00:49:42;;;;;;;25.95;17.77;;;2.20;99.90;;;;;;5112318;28;20040;-49
2021/12/07 00:52:08;;;;;;;21.42;15.38;;;2.10;99.90;;;;;;5112488;28;20063;-48
2021/12/07 00:54:34;;;;;;;22.88;15.90;;;2.00;99.90;;;;;;5112668;28;20036;-47
2021/12/07 00:57:02;;;;;;;22.65;16.67;;;2.00;99.90;;;;;;5112890;28;20358;-47
2021/12/07 00:59:28;;;;;;;22.92;15.60;;;2.00;99.90;;;;;;5112706;28;20510;-49
2021/12/07 01:01:54;;;;;;;25.58;17.13;;;1.90;99.90;;;;;;5112114;28;20044;-48
2021/12/07 01:04:20;;;;;;;27.92;17.35;;;1.80;99.90;;;;;;5112387;28;20089;-47
2021/12/07 01:07:01;;;;;;;23.70;16.00;;;1.80;99.90;;;;;;5112368;28;20039;-49
2021/12/07 01:26:09;;;;;;;24.45;16.50;;;1.50;99.90;;;;;;5073065;28;20115;-47
2021/12/07 01:28:40;;;;;;;23.65;16.95;;;1.60;99.90;;;;;;5073194;28;20446;-47
2021/12/07 01:36:20;;;;;;;19.48;14.27;;;1.50;99.90;;;;;;5073105;28;20082;-46
2021/12/07 01:59:56;;;;;;;24.83;15.32;;;1.40;99.90;;;;;;5115530;28;20429;-47
2021/12/07 02:02:25;;;;;;;21.20;16.17;;;1.40;99.90;;;;;;5115591;28;20078;-47
2021/12/07 02:04:52;;;;;;;24.30;16.38;;;1.40;99.90;;;;;;5115391;27;20088;-48
2021/12/07 02:07:18;;;;;;;21.15;15.43;;;1.30;99.90;;;;;;5114273;28;20048;-48
2021/12/07 02:09:45;;;;;;;26.00;16.63;;;1.40;99.90;;;;;;5114180;28;20036;-46
2021/12/07 02:12:12;;;;;;;23.45;16.10;;;1.40;99.90;;;;;;5115499;28;20111;-48
2021/12/07 02:14:39;;;;;;;24.17;15.85;;;1.40;99.90;;;;;;5115367;28;20032;-47
2021/12/07 02:17:09;;;;;;;20.95;16.35;;;1.30;99.90;;;;;;5115185;28;20107;-48
2021/12/07 02:19:36;;;;;;;20.70;15.80;;;1.40;99.90;;;;;;5114979;28;20486;-49
2021/12/07 02:22:03;;;;;;;22.27;15.45;;;1.30;99.90;;;;;;5115014;28;20493;-48
2021/12/07 02:24:29;;;;;;;19.73;15.55;;;1.30;99.90;;;;;;5115276;28;20384;-47
2021/12/07 02:26:56;;;;;;;23.05;15.93;;;1.40;99.90;;;;;;5115100;27;20035;-47
2021/12/07 02:29:22;;;;;;;21.13;15.93;;;1.40;99.90;;;;;;5114783;28;20041;-47
2021/12/07 02:31:50;;;;;;;21.38;14.95;;;1.40;99.90;;;;;;5114723;28;20523;-47
2021/12/07 02:34:16;;;;;;;20.90;15.87;;;1.40;99.90;;;;;;5114947;28;20485;-47
2021/12/07 02:36:43;;;;;;;21.98;15.48;;;1.40;99.90;;;;;;5114662;28;20035;-47
2021/12/07 02:39:11;;;;;;;20.83;15.10;;;1.50;99.90;;;;;;5115016;28;20043;-47
2021/12/07 02:41:38;;;;;;;19.47;15.17;;;1.50;99.90;;;;;;5114585;28;20533;-47
2021/12/07 02:44:06;;;;;;;21.08;15.23;;;1.50;99.90;;;;;;5114811;28;20048;-47
2021/12/07 02:46:33;;;;;;;21.52;15.85;;;1.50;99.90;;;;;;5114930;28;20048;-47
2021/12/07 02:48:59;;;;;;;23.02;15.60;;;1.50;99.90;;;;;;5114598;28;20040;-47
2021/12/07 02:51:25;;;;;;;21.05;15.60;;;1.50;99.90;;;;;;5114255;27;20045;-47
2021/12/07 02:53:51;;;;;;;22.77;15.98;;;1.60;99.90;;;;;;5114600;28;20027;-47
2021/12/07 02:56:17;;;;;;;22.65;16.25;;;1.60;99.90;;;;;;5114510;28;20043;-47
2021/12/07 02:58:44;;;;;;;20.05;15.00;;;1.60;99.90;;;;;;5114274;28;20086;-47
2021/12/07 03:01:24;;;;;;;22.02;15.38;;;1.70;99.90;;;;;;5114475;28;20035;-49
2021/12/07 03:04:01;;;;;;;23.02;14.85;;;1.70;99.90;;;;;;5114630;28;20039;-48
2021/12/07 03:06:39;;;;;;;23.10;16.38;;;1.70;99.90;;;;;;5114179;28;20084;-52
2021/12/07 03:28:06;;;;;;;17.52;13.30;;;1.70;99.90;;;;;;5113872;28;20135;-50
2021/12/07 03:30:31;;;;;;;18.67;14.43;;;1.70;99.90;;;;;;5113616;28;20453;-52
2021/12/07 03:32:57;;;;;;;18.83;14.57;;;1.70;99.90;;;;;;5113797;28;20158;-46
2021/12/07 03:35:23;;;;;;;17.35;13.68;;;1.70;99.90;;;;;;5114033;28;20780;-46
2021/12/07 03:37:48;;;;;;;17.73;13.27;;;1.70;99.90;;;;;;5113420;28;20082;-47
2021/12/07 03:40:15;;;;;;;16.80;12.95;;;1.70;99.90;;;;;;5112910;28;20042;-46
2021/12/07 03:42:41;;;;;;;21.42;14.77;;;1.70;99.90;;;;;;5113582;28;20036;-48
2021/12/07 03:45:08;;;;;;;17.92;13.50;;;1.70;99.90;;;;;;5113472;28;20043;-47
2021/12/07 03:47:34;;;;;;;17.83;13.30;;;1.70;99.90;;;;;;5113272;28;20063;-48
2021/12/07 03:49:59;;;;;;;17.40;13.10;;;1.60;99.90;;;;;;5113607;28;20124;-48
2021/12/07 03:52:25;;;;;;;19.55;13.25;;;1.60;99.90;;;;;;5113668;28;20039;-48
2021/12/07 03:54:51;;;;;;;16.52;13.68;;;1.60;99.90;;;;;;5113399;28;20035;-49
2021/12/07 03:57:17;;;;;;;18.20;12.65;;;1.60;99.90;;;;;;5111895;28;20499;-48
2021/12/07 03:59:42;;;;;;;15.77;12.32;;;1.50;99.90;;;;;;5113089;27;20039;-48
2021/12/07 04:02:08;;;;;;;15.45;12.35;;;1.60;99.90;;;;;;5113007;28;20442;-48
2021/12/07 04:04:38;;;;;;;18.40;12.13;;;1.60;99.90;;;;;;5113337;28;20035;-48
2021/12/07 04:07:05;;;;;;;16.88;12.00;;;1.60;99.90;;;;;;5113087;28;20047;-48
2021/12/07 04:09:32;;;;;;;14.23;10.90;;;1.60;99.90;;;;;;5111774;28;20678;-47
2021/12/07 04:11:58;;;;;;;19.17;12.45;;;1.60;99.90;;;;;;5112900;28;20039;-46
2021/12/07 04:14:23;;;;;;;17.88;12.68;;;1.60;99.90;;;;;;5113135;28;20078;-50
2021/12/07 04:16:49;;;;;;;14.63;12.02;;;1.60;99.90;;;;;;5112886;28;20110;-48
2021/12/07 04:19:15;;;;;;;18.33;12.20;;;1.50;99.90;;;;;;5113250;28;20063;-49
2021/12/07 04:21:41;;;;;;;16.52;11.77;;;1.50;99.90;;;;;;5112987;28;20035;-49
2021/12/07 04:24:06;;;;;;;17.42;12.63;;;1.50;99.90;;;;;;5112929;28;20032;-47
2021/12/07 04:26:32;;;;;;;17.38;12.20;;;1.40;99.90;;;;;;5112861;28;20035;-47
2021/12/07 04:28:58;;;;;;;16.75;12.15;;;1.50;99.90;;;;;;5112981;28;20074;-49
2021/12/07 04:31:24;;;;;;;17.58;12.90;;;1.40;99.90;;;;;;5112863;28;20142;-47
2021/12/07 04:33:50;;;;;;;15.90;11.85;;;1.40;99.90;;;;;;5113164;28;20048;-47
2021/12/07 04:36:16;;;;;;;18.65;12.23;;;1.50;99.90;;;;;;5112820;28;20046;-47
2021/12/07 04:38:42;;;;;;;17.23;11.25;;;1.40;99.90;;;;;;5112948;28;20035;-47
2021/12/07 04:41:09;;;;;;;14.70;10.50;;;1.50;99.90;;;;;;5112843;28;20043;-46
2021/12/07 04:43:36;;;;;;;15.40;11.15;;;1.40;99.90;;;;;;5112607;28;20513;-51
2021/12/07 04:46:18;;;;;;;15.77;11.02;;;1.50;99.90;;;;;;5112581;28;20085;-48
2021/12/07 04:59:29;;;;;;;15.50;11.05;;;1.50;99.90;;;;;;5116839;28;20366;-48
2021/12/07 05:01:55;;;;;;;13.75;10.15;;;1.50;99.90;;;;;;5116564;28;20092;-48
2021/12/07 05:04:25;;;;;;;14.13;10.05;;;1.50;99.90;;;;;;5116430;28;20036;-46
2021/12/07 05:06:56;;;;;;;13.10;10.18;;;1.60;99.90;;;;;;5116567;28;20078;-48
2021/12/07 05:12:06;;;;;;;14.37;9.53;;;1.60;99.90;;;;;;5116054;28;20040;-59
2021/12/07 05:14:34;;;;;;;12.02;8.77;;;1.60;99.90;;;;;;5116043;28;20032;-59
2021/12/07 05:38:39;;;;;;;12.75;9.15;;;1.70;99.90;;;;;;5115708;27;20067;-59
2021/12/07 05:41:07;;;;;;;11.75;9.18;;;1.70;99.90;;;;;;5115560;28;20090;-59
2021/12/07 05:43:33;;;;;;;19.63;9.50;;;1.80;99.90;;;;;;5115363;28;20123;-59
2021/12/07 05:46:00;;;;;;;15.30;9.20;;;1.90;99.90;;;;;;5115404;28;20039;-59
2021/12/07 05:48:26;;;;;;;14.90;9.02;;;1.90;99.90;;;;;;5115320;28;20031;-60
2021/12/07 05:50:52;;;;;;;14.70;8.75;;;2.00;99.90;;;;;;5115474;28;20119;-59
2021/12/07 05:53:17;;;;;;;15.25;8.85;;;2.00;99.90;;;;;;5115502;28;20553;-60
2021/12/07 05:55:43;;;;;;;15.65;8.85;;;2.00;99.90;;;;;;5115352;28;20039;-59
2021/12/07 05:58:09;;;;;;;14.75;10.45;;;2.00;99.90;;;;;;5115230;27;20032;-59
2021/12/07 06:00:36;;;;;;;14.80;9.80;;;2.10;99.90;;;;;;5115156;28;20362;-60
2021/12/07 06:03:05;;;;;;;12.95;8.23;;;2.10;99.90;;;;;;5114446;28;20042;-60
2021/12/07 06:05:32;;;;;;;16.48;9.52;;;2.10;99.90;;;;;;5114923;28;20480;-59
2021/12/07 06:07:58;;;;;;;14.45;9.18;;;2.10;99.90;;;;;;5115063;28;20048;-59
2021/12/07 06:10:24;;;;;;;10.95;8.40;;;2.20;99.90;;;;;;5114850;28;20096;-59
2021/12/07 06:12:50;;;;;;;17.27;8.38;;;2.20;99.90;;;;;;5114763;28;20484;-59
2021/12/07 06:15:19;;;;;;;15.32;9.23;;;2.10;99.90;;;;;;5114827;28;20035;-59
2021/12/07 06:17:45;;;;;;;16.35;8.43;;;2.20;99.90;;;;;;5113547;28;20047;-59
2021/12/07 06:20:12;;;;;;;14.02;9.07;;;2.30;99.90;;;;;;5114877;28;20085;-59
2021/12/07 06:22:37;;;;;;;13.15;8.70;;;2.20;99.90;;;;;;5114774;28;20047;-60
2021/12/07 06:25:05;;;;;;;13.85;8.25;;;2.30;99.90;;;;;;5114587;28;20043;-59
2021/12/07 06:27:31;;;;;;;12.57;7.10;;;2.30;99.90;;;;;;5114627;28;20036;-59
2021/12/07 06:29:57;;;;;;;10.43;7.55;;;2.30;99.90;;;;;;5114467;28;20035;-60
2021/12/07 06:32:23;;;;;;;19.35;8.35;;;2.30;99.90;;;;;;5114216;28;20060;-60
2021/12/07 06:34:50;;;;;;;8.77;6.85;;;2.40;99.90;;;;;;5114480;28;20104;-59
2021/12/07 06:37:15;;;;;;;13.25;7.45;;;2.30;99.90;;;;;;5114532;28;20085;-59
2021/12/07 06:39:41;;;;;;;10.63;6.32;;;2.30;99.90;;;;;;5114309;28;20035;-59
2021/12/07 06:42:06;;;;;;;10.95;7.07;;;2.30;99.90;;;;;;5114172;28;20116;-59
2021/12/07 06:44:32;;;;;;;10.93;7.68;;;2.30;99.90;;;;;;5114227;28;20092;-59
2021/12/07 06:46:58;;;;;;;13.10;7.18;;;2.30;99.90;;;;;;5114194;28;20036;-59
2021/12/07 06:49:23;;;;;;;12.50;7.13;;;2.30;99.90;;;;;;5114197;28;20035;-59
2021/12/07 06:51:51;;;;;;;11.85;6.70;;;2.30;99.90;;;;;;5114055;28;20500;-60
2021/12/07 06:54:17;;;;;;;16.48;7.30;;;2.30;99.90;;;;;;5113852;28;20528;-59
2021/12/07 06:56:43;;;;;;;10.25;7.13;;;2.30;99.90;;;;;;5113836;28;20035;-59
2021/12/07 06:59:09;;;;;;;15.45;8.23;;;2.30;99.90;;;;;;5113762;28;20042;-59
2021/12/07 07:01:35;;;;;;;13.20;7.60;;;2.20;99.90;;;;;;5113956;28;20040;-60
2021/12/07 07:04:01;;;;;;;13.02;6.88;;;2.20;99.90;;;;;;5113964;28;20096;-59
2021/12/07 07:06:27;;;;;;;12.75;8.00;;;2.20;99.90;;;;;;5112964;27;20059;-60
2021/12/07 07:08:53;;;;;;;14.48;7.55;;;2.20;99.90;;;;;;5113884;28;20039;-59
2021/12/07 07:11:20;;;;;;;14.30;6.32;;;2.20;99.90;;;;;;5113529;28;20473;-60
2021/12/07 07:13:47;;;;;;;15.45;6.68;;;2.30;99.90;;;;;;5112393;28;20039;-59
2021/12/07 07:16:13;;;;;;;11.32;6.88;;;2.20;99.90;;;;;;5112991;28;20035;-60
2021/12/07 07:18:39;;;;;;;12.98;6.38;;;2.20;99.90;;;;;;5113602;28;20040;-60
2021/12/07 07:21:06;;;;;;;11.95;6.50;;;2.20;99.90;;;;;;5113636;28;20168;-60
2021/12/07 07:23:32;;;;;;;15.98;5.95;;;2.20;99.90;;;;;;5113496;28;20395;-59
2021/12/07 07:25:58;;;;;;;11.68;6.38;;;2.30;99.90;;;;;;5113270;28;20434;-59
2021/12/07 07:28:26;;;;;;;15.35;6.47;;;2.20;99.90;;;;;;5113393;28;20039;-59
2021/12/07 07:30:52;;;;;;;13.10;7.00;;;2.20;99.90;;;;;;5113063;28;20118;-60
2021/12/07 07:33:17;;;;;;;16.67;7.03;;;2.30;99.90;;;;;;5113104;28;20093;-60
2021/12/07 07:35:43;;;;;;;12.77;6.57;;;2.30;99.90;;;;;;5113226;28;20067;-60
2021/12/07 07:38:09;;;;;;;15.63;7.00;;;2.30;99.90;;;;;;5113048;28;20035;-60
2021/12/07 07:40:35;;;;;;;15.77;7.55;;;2.30;99.90;;;;;;5113473;27;20039;-60
2021/12/07 07:43:01;;;;;;;13.90;7.15;;;2.20;99.90;;;;;;5112916;28;20047;-60
2021/12/07 07:45:27;;;;;;;18.27;7.85;;;2.30;99.90;;;;;;5111943;28;20039;-59
2021/12/07 07:47:54;;;;;;;12.57;7.50;;;2.20;99.90;;;;;;5113154;28;20507;-60
2021/12/07 07:50:21;;;;;;;10.88;7.13;;;2.20;99.90;;;;;;5112939;28;20040;-60
2021/12/07 07:52:47;;;;;;;11.98;7.18;;;2.20;99.90;;;;;;5112955;28;20044;-60
2021/12/07 07:55:13;;;;;;;13.15;7.30;;;2.10;99.90;;;;;;5112978;28;20058;-60
2021/12/07 07:57:40;;;;;;;13.00;7.38;;;2.20;99.90;;;;;;5112824;28;20032;-60
2021/12/07 08:00:10;;;;;;;18.45;7.18;;;2.20;99.90;;;;;;5112841;28;20039;-60
2021/12/07 08:02:36;;;;;;;12.55;7.45;;;2.20;99.90;;;;;;5112952;28;20047;-60
2021/12/07 08:05:02;;;;;;;14.68;7.55;;;2.20;99.90;;;;;;5112689;28;20092;-59
2021/12/07 08:07:28;;;;;;;15.80;7.35;;;2.10;99.90;;;;;;5112735;28;20046;-60
2021/12/07 08:09:53;;;;;;;22.88;7.93;;;2.10;99.90;;;;;;5112750;28;20039;-60
2021/12/07 08:12:19;;;;;;;13.77;8.25;;;2.10;99.90;;;;;;5112455;28;20116;-60
2021/12/07 08:14:45;;;;;;;12.50;7.22;;;2.00;99.90;;;;;;5112549;28;20196;-60
2021/12/07 08:17:11;;;;;;;17.15;7.75;;;2.00;99.90;;;;;;5112614;28;20036;-60
2021/12/07 08:19:37;;;;;;;14.95;7.82;;;2.00;99.90;;;;;;5112821;28;20118;-60
2021/12/07 08:22:03;;;;;;;13.02;7.30;;;2.00;99.90;;;;;;5112573;28;20043;-60
2021/12/07 08:24:29;;;;;;;13.40;6.82;;;2.00;99.90;;;;;;5112533;28;20044;-60
2021/12/07 08:26:55;;;;;;;14.73;7.28;;;2.00;99.90;;;;;;5112298;28;20038;-59
2021/12/07 08:29:21;;;;;;;13.23;7.40;;;2.10;99.90;;;;;;5112333;28;20116;-60
2021/12/07 08:31:47;;;;;;;15.85;7.40;;;2.10;99.90;;;;;;5112273;28;20052;-60
2021/12/07 08:34:12;;;;;;;17.67;7.63;;;2.10;99.90;;;;;;5112261;28;20404;-60
2021/12/07 08:36:38;;;;;;;15.90;8.05;;;2.20;99.90;;;;;;5112344;28;20036;-60
2021/12/07 08:39:06;;;;;;;17.38;7.32;;;2.20;99.90;;;;;;5112259;28;20043;-60
2021/12/07 08:41:32;;;;;;;15.80;7.80;;;2.30;99.90;;;;;;5112126;28;20553;-60
2021/12/07 08:43:58;;;;;;;16.58;7.28;;;2.30;99.90;;;;;;5112406;28;20115;-60
2021/12/07 08:46:23;;;;;;;13.63;7.97;;;2.30;99.90;;;;;;5112279;28;20115;-60
2021/12/07 08:48:49;;;;;;;18.70;7.78;;;2.30;99.90;;;;;;5112397;28;20044;-60
2021/12/07 08:51:16;;;;;;;12.27;7.10;;;2.30;99.90;;;;;;5112023;28;20119;-60
2021/12/07 08:53:58;;;;;;;11.30;6.93;;;2.40;99.90;;;;;;5112180;28;20040;-60
2021/12/07 09:01:53;;;;;;;16.70;7.75;;;2.50;99.90;;;;;;5112182;28;20039;-60
2021/12/07 09:04:20;;;;;;;13.63;6.63;;;2.50;99.90;;;;;;5112076;28;20078;-60
2021/12/07 09:06:47;;;;;;;17.73;6.65;;;2.50;99.90;;;;;;5112135;28;20039;-60
2021/12/07 09:09:14;;;;;;;16.33;7.47;;;2.60;99.90;;;;;;5112086;28;20093;-60
2021/12/07 09:11:41;;;;;;;12.95;7.10;;;2.60;99.90;;;;;;5111915;28;20404;-60
2021/12/07 09:14:14;;;;;;;15.23;7.10;;;2.70;99.90;;;;;;5112055;28;20138;-60
2021/12/07 09:16:41;;;;;;;16.80;7.03;;;2.70;99.90;;;;;;5112050;28;20027;-60
2021/12/07 09:19:07;;;;;;;13.70;6.97;;;2.70;99.90;;;;;;5111122;28;20060;-60
2021/12/07 09:21:34;;;;;;;17.27;8.00;;;2.80;99.90;;;;;;5112364;28;20079;-60
2021/12/07 09:23:59;;;;;;;14.65;8.02;;;2.80;99.90;;;;;;5112158;28;20036;-60
2021/12/07 09:26:25;;;;;;;18.00;8.90;;;2.90;99.90;;;;;;5111906;28;20035;-60
2021/12/07 09:28:51;;;;;;;19.05;7.88;;;3.00;99.90;;;;;;5111764;28;20044;-60
2021/12/07 09:31:17;;;;;;;17.63;8.05;;;3.00;99.90;;;;;;5111660;28;20251;-60
2021/12/07 09:33:43;;;;;;;19.23;7.80;;;3.10;99.90;;;;;;5112078;28;20369;-60
2021/12/07 09:36:11;;;;;;;11.88;5.80;;;3.20;99.90;;;;;;5111908;28;20035;-60
2021/12/07 09:38:38;;;;;;;18.88;5.55;;;3.30;99.90;;;;;;5113240;28;20047;-60
2021/12/07 09:41:06;;;;;;;16.80;5.88;;;3.30;99.90;;;;;;5115419;28;20071;-60
2021/12/07 09:43:32;;;;;;;13.80;5.30;;;3.40;99.90;;;;;;5115329;27;20120;-60
2021/12/07 09:45:58;;;;;;;14.80;6.50;;;3.50;99.90;;;;;;5115220;28;20178;-60
2021/12/07 09:48:25;;;;;;;15.13;5.45;;;3.60;99.90;;;;;;5115260;28;20490;-60
2021/12/07 09:50:53;;;;;;;16.70;5.30;;;3.70;99.90;;;;;;5115134;28;20032;-61
2021/12/07 09:53:21;;;;;;;9.63;5.43;;;3.80;99.90;;;;;;5115176;28;20044;-60
2021/12/07 09:55:47;;;;;;;9.73;5.97;;;3.90;99.90;;;;;;5115168;28;20035;-60
2021/12/07 09:58:14;;;;;;;11.48;5.53;;;4.00;99.90;;;;;;5114937;28;20473;-60
2021/12/07 10:00:40;;;;;;;18.02;6.32;;;4.00;99.90;;;;;;5115240;28;20043;-60
2021/12/07 10:03:06;;;;;;;14.15;5.93;;;4.10;99.90;;;;;;5115101;28;20039;-60
2021/12/07 10:05:35;;;;;;;11.82;5.15;;;4.30;99.90;;;;;;5114922;28;20501;-60
2021/12/07 10:08:04;;;;;;;16.50;5.45;;;4.40;99.90;;;;;;5115053;28;20126;-60
2021/12/07 10:10:39;;;;;;;19.63;5.32;;;4.60;99.90;;;;;;5114631;28;20080;-60
2021/12/07 10:13:07;;;;;;;12.80;4.72;;;4.70;99.90;;;;;;5114710;28;20050;-60
2021/12/07 10:15:33;;;;;;;12.75;4.38;;;4.80;99.90;;;;;;5115101;28;20044;-60
2021/12/07 10:18:09;;;;;;;13.57;4.72;;;4.80;99.90;;;;;;5114823;28;20220;-60
2021/12/07 10:20:44;;;;;;;12.10;5.05;;;4.80;99.90;;;;;;5114711;28;20044;-60
2021/12/07 10:23:18;;;;;;;12.43;4.65;;;4.80;99.90;;;;;;5114932;28;20051;-60
2021/12/07 10:25:55;;;;;;;9.23;4.40;;;4.90;99.90;;;;;;5114692;28;20039;-60
2021/12/07 10:28:35;;;;;;;10.57;4.50;;;5.00;99.90;;;;;;5114645;28;20545;-60
2021/12/07 10:31:33;;;;;;;12.38;4.28;;;5.10;99.90;;;;;;5114607;28;20036;-60
2021/12/07 10:34:11;;;;;;;10.65;4.13;;;5.20;99.90;;;;;;5114382;28;20528;-60
2021/12/07 10:36:49;;;;;;;14.68;4.15;;;5.30;99.90;;;;;;5114589;28;20047;-60
2021/12/07 10:39:21;;;;;;;8.30;3.55;;;5.30;99.90;;;;;;5114598;28;20825;-60
2021/12/07 10:41:50;;;;;;;12.43;4.28;;;5.30;99.90;;;;;;5109238;28;20377;-60
2021/12/07 10:44:17;;;;;;;16.30;5.93;;;5.50;99.90;;;;;;5110594;28;20045;-60
2021/12/07 10:46:42;;;;;;;17.13;5.32;;;5.50;99.90;;;;;;5111836;28;20043;-60
2021/12/07 10:49:32;;;;;;;11.52;4.47;;;5.80;99.90;;;;;;5114010;28;20430;-61
2021/12/07 10:52:03;;;;;;;14.68;3.95;;;5.90;99.90;;;;;;5113621;28;20101;-60
2021/12/07 10:54:32;;;;;;;13.93;3.75;;;6.10;99.90;;;;;;5114081;28;20039;-60
2021/12/07 10:57:02;;;;;;;12.38;3.90;;;6.20;99.90;;;;;;5114254;28;20427;-60
2021/12/07 10:59:27;;;;;;;15.23;3.55;;;6.30;99.90;;;;;;5114002;28;20442;-61
2021/12/07 11:01:53;;;;;;;13.40;3.63;;;6.40;99.90;;;;;;5114140;28;20035;-60
2021/12/07 11:04:35;;;;;;;12.32;3.55;;;6.40;99.90;;;;;;5114031;28;20046;-61
2021/12/07 11:07:14;;;;;;;10.52;3.90;;;6.40;99.90;;;;;;5113898;28;20071;-61
2021/12/07 11:10:08;;;;;;;9.43;3.60;;;6.50;99.90;;;;;;5113690;28;20046;-60
2021/12/07 11:16:15;;;;;;;11.55;3.70;;;6.60;99.90;;;;;;5113632;28;20138;-61
2021/12/07 11:18:44;;;;;;;11.48;4.22;;;6.50;99.90;;;;;;5111761;28;20059;-60
2021/12/07 11:21:13;;;;;;;11.85;3.80;;;6.50;99.90;;;;;;5112552;28;20404;-60
2021/12/07 11:23:48;;;;;;;13.10;4.72;;;6.50;99.90;;;;;;5113050;27;20039;-60
2021/12/07 11:31:49;;;;;;;14.40;4.03;;;6.70;99.90;;;;;;5113057;28;20051;-60
2021/12/07 11:34:22;;;;;;;8.68;3.65;;;6.90;99.90;;;;;;5113080;28;20540;-61
2021/12/07 11:36:54;;;;;;;14.20;3.70;;;7.00;99.90;;;;;;5113285;28;20036;-60
2021/12/07 11:39:27;;;;;;;15.00;4.30;;;7.00;99.90;;;;;;5113283;28;20035;-60
2021/12/07 11:41:59;;;;;;;9.30;3.45;;;7.10;99.90;;;;;;5113320;28;20044;-61
2021/12/07 11:44:26;;;;;;;12.52;3.67;;;7.10;99.90;;;;;;5111273;28;20055;-61
2021/12/07 11:46:52;;;;;;;11.73;3.78;;;7.10;99.90;;;;;;5112927;28;20102;-60
2021/12/07 11:49:25;;;;;;;7.97;3.40;;;7.20;99.90;;;;;;5112928;28;20088;-61
2021/12/07 11:51:54;;;;;;;13.35;3.63;;;7.20;99.90;;;;;;5113116;28;20040;-60
2021/12/07 11:54:26;;;;;;;10.88;3.85;;;7.20;99.90;;;;;;5112926;28;20042;-60
2021/12/07 11:56:53;;;;;;;17.05;3.33;;;7.20;99.90;;;;;;5110974;28;20090;-60
2021/12/07 11:59:19;;;;;;;20.30;4.38;;;7.10;99.90;;;;;;5112613;28;20115;-60
2021/12/07 12:01:46;;;;;;;8.63;2.65;;;7.00;99.90;;;;;;5112517;28;20039;-60
2021/12/07 12:04:13;;;;;;;9.02;2.80;;;7.00;99.90;;;;;;5112821;28;20085;-60
2021/12/07 12:06:42;;;;;;;17.90;4.00;;;7.00;99.90;;;;;;5111956;28;20112;-60
2021/12/07 12:09:08;;;;;;;9.68;3.53;;;6.80;99.90;;;;;;5112736;28;20112;-60
2021/12/07 12:11:45;;;;;;;13.93;3.40;;;6.70;99.90;;;;;;5112529;28;20051;-61
2021/12/07 12:14:29;;;;;;;6.95;3.00;;;6.70;99.90;;;;;;5112873;28;20110;-60
2021/12/07 12:17:03;;;;;;;11.40;3.58;;;6.70;99.90;;;;;;5112696;28;20427;-60
2021/12/07 12:20:11;;;;;;;9.35;3.05;;;6.60;99.90;;;;;;5112480;28;20411;-59
2021/12/07 12:22:59;;;;;;;11.57;3.20;;;6.60;99.90;;;;;;5069721;28;20052;-60
2021/12/07 12:25:26;;;;;;;12.82;3.67;;;6.50;99.90;;;;;;5069670;28;20148;-59
2021/12/07 12:27:54;;;;;;;16.75;4.18;;;6.50;99.90;;;;;;5069574;28;20040;-60
2021/12/07 12:30:21;;;;;;;15.75;3.97;;;6.50;99.90;;;;;;5069656;28;20152;-60
2021/12/07 12:32:54;;;;;;;17.38;3.92;;;6.50;99.90;;;;;;5069442;28;20195;-60
2021/12/07 12:35:28;;;;;;;10.85;3.35;;;6.50;99.90;;;;;;5052981;28;20048;-60
2021/12/07 12:37:54;;;;;;;13.45;3.10;;;6.50;99.90;;;;;;5069887;28;20913;-60
2021/12/07 12:40:27;;;;;;;10.63;3.83;;;6.40;99.90;;;;;;5052677;28;20076;-60
2021/12/07 12:42:55;;;;;;;12.75;4.10;;;6.40;99.90;;;;;;5069468;28;20159;-60
2021/12/07 12:45:35;;;;;;;9.88;3.00;;;6.40;99.90;;;;;;5052416;28;20048;-60
2021/12/07 12:48:01;;;;;;;14.48;4.57;;;6.50;99.90;;;;;;5069596;28;20036;-60
2021/12/07 12:50:33;;;;;;;12.93;3.90;;;6.40;99.90;;;;;;5069396;28;20076;-60
2021/12/07 12:53:05;;;;;;;12.77;3.90;;;6.30;99.90;;;;;;5069612;28;20041;-60
2021/12/07 12:55:43;;;;;;;8.95;3.55;;;6.30;99.90;;;;;;5069369;28;20051;-60
2021/12/07 12:58:21;;;;;;;12.15;2.78;;;6.30;99.90;;;;;;5093071;28;20545;-60
2021/12/07 13:00:56;;;;;;;12.13;3.92;;;6.30;99.90;;;;;;5112348;28;20043;-60
2021/12/07 13:03:21;;;;;;;15.30;3.75;;;6.30;99.90;;;;;;5112105;28;20453;-60
2021/12/07 13:06:00;;;;;;;14.57;3.83;;;6.20;99.90;;;;;;5111980;28;20070;-60
2021/12/07 13:08:27;;;;;;;10.75;3.30;;;6.20;99.90;;;;;;5110835;28;20122;-60
2021/12/07 13:11:02;;;;;;;12.40;3.53;;;6.20;99.90;;;;;;5112109;28;20051;-60
2021/12/07 13:13:34;;;;;;;13.52;3.80;;;6.20;99.90;;;;;;5113323;28;20089;-60
2021/12/07 13:16:15;;;;;;;7.72;3.05;;;6.10;99.90;;;;;;5114891;28;20036;-59
2021/12/07 13:18:43;;;;;;;16.27;3.60;;;6.10;99.90;;;;;;5115890;27;20040;-60
2021/12/07 13:21:23;;;;;;;11.45;3.70;;;6.20;99.90;;;;;;5115994;28;20086;-60
2021/12/07 13:24:35;;;;;;;11.98;3.97;;;6.20;99.90;;;;;;5115984;28;20043;-60
2021/12/07 13:27:10;;;;;;;13.65;3.92;;;6.20;99.90;;;;;;5072927;28;20489;-60
2021/12/07 13:29:38;;;;;;;14.40;4.30;;;6.20;99.90;;;;;;5072822;28;20425;-60
2021/12/07 13:32:05;;;;;;;11.73;4.00;;;6.20;99.90;;;;;;5072406;28;20494;-60
2021/12/07 13:34:35;;;;;;;16.25;3.95;;;6.20;99.90;;;;;;5072759;28;20078;-60
2021/12/07 13:37:07;;;;;;;17.45;5.13;;;6.20;99.90;;;;;;5072642;28;20053;-60
2021/12/07 13:39:33;;;;;;;11.68;4.10;;;6.10;99.90;;;;;;5072657;28;20364;-60
2021/12/07 13:42:00;;;;;;;13.27;5.03;;;6.10;99.90;;;;;;5072625;28;20120;-60
2021/12/07 13:44:28;;;;;;;16.52;4.90;;;6.10;99.90;;;;;;5072628;28;20040;-60
2021/12/07 13:47:00;;;;;;;13.80;3.75;;;6.10;99.90;;;;;;5072610;28;20119;-60
2021/12/07 13:49:27;;;;;;;14.10;4.05;;;6.10;99.90;;;;;;5072531;28;20055;-60
2021/12/07 13:51:53;;;;;;;14.52;4.10;;;6.10;99.90;;;;;;5072370;28;20048;-60
2021/12/07 13:54:21;;;;;;;11.82;3.67;;;6.10;99.90;;;;;;5072390;28;20037;-60
2021/12/07 13:56:49;;;;;;;14.27;4.18;;;6.00;99.90;;;;;;5072335;28;20044;-60
2021/12/07 13:59:19;;;;;;;14.52;4.85;;;6.00;99.90;;;;;;5072457;28;20040;-60
2021/12/07 14:01:54;;;;;;;12.13;4.82;;;6.00;99.90;;;;;;5082770;28;20058;-60
2021/12/07 14:04:24;;;;;;;13.85;4.38;;;5.90;99.90;;;;;;5114920;28;20388;-60
2021/12/07 14:06:50;;;;;;;18.92;4.65;;;5.90;99.90;;;;;;5113743;28;20097;-60
2021/12/07 14:09:17;;;;;;;15.55;4.15;;;5.90;99.90;;;;;;5115202;28;20073;-60
2021/12/07 14:11:43;;;;;;;11.23;4.00;;;5.90;99.90;;;;;;5115051;28;20047;-60
2021/12/07 14:14:13;;;;;;;12.27;4.38;;;5.80;99.90;;;;;;5115223;28;20047;-60
2021/12/07 14:16:39;;;;;;;13.50;4.45;;;5.80;99.90;;;;;;5114757;28;20040;-60
2021/12/07 14:19:06;;;;;;;11.82;4.22;;;5.70;99.90;;;;;;5114591;28;20042;-60
2021/12/07 14:21:32;;;;;;;13.70;4.70;;;5.70;99.90;;;;;;5114710;28;20050;-60
2021/12/07 14:24:08;;;;;;;13.00;5.22;;;5.60;99.90;;;;;;5113336;28;20405;-60
2021/12/07 14:26:38;;;;;;;14.10;5.38;;;5.60;99.90;;;;;;5114593;28;20042;-60
2021/12/07 14:29:10;;;;;;;16.15;4.95;;;5.60;99.90;;;;;;5114560;28;20393;-60
2021/12/07 14:31:42;;;;;;;16.33;4.85;;;5.50;99.90;;;;;;5114485;28;20052;-60
2021/12/07 14:34:31;;;;;;;11.93;5.35;;;5.50;99.90;;;;;;5114616;28;20177;-60
2021/12/07 14:37:06;;;;;;;11.73;5.55;;;5.40;99.90;;;;;;5071686;28;20036;-60
2021/12/07 14:39:40;;;;;;;15.80;5.30;;;5.30;99.90;;;;;;5071599;28;20060;-60
2021/12/07 14:42:14;;;;;;;16.90;5.30;;;5.30;99.90;;;;;;5071634;28;20088;-60
2021/12/07 14:44:45;;;;;;;14.35;5.10;;;5.30;99.90;;;;;;5071491;28;20071;-60